• Join FlightAware (Why Join?)
  • Login
  • US Flag 
04:26AM EDT


 

Airport Tracker/Info


-or-


 

Live Flight TrackerFlight Track Log ✈ N779NC ✈ 02-Jul-2013 ✈ KPIT - KATL

Flight Track Log - Related Links

Times and Time Zones

All times are in EDT time to prevent confusion due to time zone crossing. See the N779NC flight status page for this flight to view local times or setup timezone preferences in your user account.

Time Position Orientation Groundspeed Altitude Reporting Facility
EDT Latitude Longitude Course Direction KTS MPH feet Rate Location/Type
09:53AM 40.4608 -80.2994 215° Southwest 232 267 2,700  Level Cleveland Center
09:54AM 40.4025 -80.3106 188° South 225 259 4,400 1,740 Climbing Cleveland Center
09:55AM 40.3358 -80.3297 192° South 267 307 6,200 2,100 Climbing Cleveland Center
09:56AM 40.1767 -80.1233 217° Southwest  Level FlightAware Approximate
09:56AM 40.2692 -80.3572 197° South 267 307 8,700  Level Cleveland Center
09:57AM 40.1000 -80.1917 214° Southwest  Level FlightAware Approximate
09:57AM 40.1919 -80.3875 197° South 267 307 10,800  Level Cleveland Center
09:58AM 40.0233 -80.2600 217° Southwest  Level FlightAware Approximate
09:58AM 40.1086 -80.4175 195° South 283 326 11,700  Level Cleveland Center
09:59AM 39.9496 -80.3337 215° Southwest  Level FlightAware Approximate
09:59AM 40.0211 -80.4503 196° South 314 361 13,700  Level Cleveland Center
10:00AM 39.9294 -80.4828 195° South 333 383 15,500 1,800 Climbing Cleveland Center
10:01AM 39.8378 -80.5183 197° South 339 390 17,300 1,560 Climbing Cleveland Center
10:02AM 39.7400 -80.5506 194° South 344 396 18,700 1,320 Climbing Cleveland Center
10:03AM 39.6461 -80.5886 197° South 351 404 20,000 1,200 Climbing Cleveland Center
10:05AM 39.5492 -80.6867 218° Southwest 366 421 21,500 1,200 Climbing Indianapolis Center
10:06AM 39.4769 -80.7819 226° Southwest 371 427 22,900 1,200 Climbing Indianapolis Center
10:07AM 39.3872 -80.8944 224° Southwest 376 433 24,000 1,140 Climbing Indianapolis Center
10:08AM 39.3083 -80.9881 223° Southwest 383 441 25,300 1,020 Climbing Indianapolis Center
10:09AM 39.2239 -81.0689 217° Southwest 379 436 26,200 720 Climbing Indianapolis Center
10:10AM 39.1347 -81.1444 213° Southwest 381 438 26,900 780 Climbing Indianapolis Center
10:11AM 39.0369 -81.2003 204° Southwest 383 441 27,900 480 Climbing Indianapolis Center
10:12AM 38.9386 -81.2569 204° Southwest 385 443 28,000  Climbing Indianapolis Center
10:13AM 38.8397 -81.3125 204° Southwest 386 444 28,000  Level Indianapolis Center
10:14AM 38.7197 -81.3800 204° Southwest 386 444 28,000  Level Indianapolis Center
10:15AM 38.6181 -81.4381 204° Southwest 386 444 28,000  Level Indianapolis Center
10:16AM 38.5189 -81.4964 205° Southwest 383 441 28,000  Level Indianapolis Center
10:17AM 38.4225 -81.5522 204° Southwest 379 436 28,000  Level Indianapolis Center
10:18AM 38.3264 -81.6075 204° Southwest 378 435 28,000  Level Indianapolis Center
10:19AM 38.2294 -81.6633 204° Southwest 380 437 28,000  Level Indianapolis Center
10:20AM 38.1331 -81.7178 204° Southwest 379 436 28,000  Level Indianapolis Center
10:21AM 38.0367 -81.7742 205° Southwest 381 438 28,000  Level Indianapolis Center
10:22AM 37.9394 -81.8306 205° Southwest 382 440 28,000  Level Indianapolis Center
10:23AM 37.8225 -81.8983 205° Southwest 382 440 28,000  Level Indianapolis Center
10:24AM 37.7247 -81.9547 205° Southwest 384 442 28,000  Level Indianapolis Center
10:25AM 37.6283 -82.0119 205° Southwest 382 440 28,000  Level Indianapolis Center
10:26AM 37.5311 -82.0672 204° Southwest 384 442 28,000  Level Indianapolis Center
10:27AM 37.4356 -82.1256 206° Southwest 380 437 28,000  Level Indianapolis Center
10:28AM 37.3372 -82.1814 204° Southwest 385 443 28,000  Level Indianapolis Center
10:29AM 37.2403 -82.2386 205° Southwest 384 442 28,000  Level Indianapolis Center
10:30AM 37.1269 -82.3036 205° Southwest 383 441 28,000  Level Indianapolis Center
10:31AM 37.0308 -82.3628 206° Southwest 382 440 28,000  Level Indianapolis Center
10:32AM 36.9333 -82.4200 205° Southwest 383 441 28,000  Level Indianapolis Center
10:33AM 36.8358 -82.4778 205° Southwest 383 441 28,000  Level Indianapolis Center
10:34AM 36.7364 -82.5331 204° Southwest 386 444 28,000  Level Indianapolis Center
10:36AM 36.6169 -82.5956 203° Southwest 382 440 28,000  Level Atlanta Center
10:37AM 36.5217 -82.6489 204° Southwest 381 438 28,000  Level Atlanta Center
10:38AM 36.4222 -82.7022 203° Southwest 381 438 28,000  Level Atlanta Center
10:39AM 36.3247 -82.7528 203° Southwest 381 438 28,000  Level Atlanta Center
10:40AM 36.2294 -82.8083 205° Southwest 381 438 28,000  Level Atlanta Center
10:41AM 36.1400 -82.8508 201° Southwest 381 438 28,000 -300 Level Atlanta Center
10:42AM 36.0319 -82.8808 193° South 388 447 27,500 -600 Descending Atlanta Center
10:43AM 35.9239 -82.9106 193° South 396 456 26,900 -660 Descending Atlanta Center
10:44AM 35.8114 -82.9453 194° South 407 468 26,200 -720 Descending Atlanta Center
10:45AM 35.6950 -82.9828 195° South 421 484 25,500 -900 Descending Atlanta Center
10:46AM 35.5869 -83.0300 200° South 421 484 24,400 -780 Descending Atlanta Center
10:47AM 35.4808 -83.0875 204° Southwest 416 479 24,000 -240 Descending Atlanta Center
10:48AM 35.3769 -83.1472 205° Southwest 411 473 24,000  Level Atlanta Center
10:49AM 35.2711 -83.2044 204° Southwest 417 480 24,000  Level Atlanta Center
10:50AM 35.1692 -83.2664 206° Southwest 412 474 24,000  Level Atlanta Center
10:51AM 35.0631 -83.3258 205° Southwest 417 480 24,000  Level Atlanta Center
10:52AM 34.9592 -83.3850 205° Southwest 425 489 24,000  Level Atlanta Center
10:53AM 34.8508 -83.4464 205° Southwest 425 489 24,000  Level Atlanta Center
10:54AM 34.7469 -83.5053 205° Southwest 419 482 24,000 -540 Level Atlanta Center
10:55AM 34.6281 -83.5692 204° Southwest 417 480 23,000 -2,400 Descending Atlanta Center
10:56AM 34.5242 -83.6253 204° Southwest 417 480 19,200 -3,360 Descending Atlanta Center
10:57AM 34.4303 -83.6761 204° Southwest 417 480 16,300 -2,520 Descending Atlanta Center
10:58AM 34.3386 -83.7269 205° Southwest 397 457 14,200 -1,200 Descending Atlanta Center
10:59AM 34.2531 -83.7800 207° Southwest 360 414 14,000 -120 Descending Atlanta Center
11:00AM 34.1614 -83.8253 202° Southwest 350 403 14,000  Level Atlanta Center
11:01AM 34.0697 -83.8933 212° Southwest 373 429 14,000 -720 Level Atlanta Center
11:02AM 33.9864 -83.9711 218° Southwest 383 441 12,600 -960 Descending Atlanta Center
11:03AM 33.9217 -84.0789 234° Southwest 374 430 12,100 -300 Descending Atlanta Center
11:04AM 33.8694 -84.1839 239° Southwest 374 430 12,000 -60 Descending Atlanta Center
11:05AM 33.8086 -84.2789 232° Southwest 369 425 12,000 -120 Level Atlanta Center
11:06AM 33.7625 -84.3636 237° Southwest 332 382 11,800 -1,080 Descending Atlanta Center
11:07AM 33.7372 -84.4483 250° West 282 325 9,900 -1,800 Descending Atlanta Center
11:08AM 33.7333 -84.5500 267° West 275 316 8,100 -1,560 Descending Atlanta TRACON
11:09AM 33.7333 -84.6333 270° West 260 299 6,700 -1,500 Descending Atlanta TRACON
11:10AM 33.7333 -84.7167 270° West 263 303 5,200 -840 Descending Atlanta TRACON
11:11AM 33.7500 -84.8000 284° West 227 261 5,100 -120 Descending Atlanta TRACON
11:12AM 33.6833 -84.8167 192° South 228 262 5,000  Descending Atlanta TRACON
11:13AM 33.6500 -84.7667 129° Southeast 230 265 5,100  Climbing Atlanta TRACON
11:14AM 33.6500 -84.6833 90° East 246 283 5,000 -120 Descending Atlanta TRACON